Time;durP1;ratioP1;P1;durP2;ratioP2;P2;SDS_P1;SDS_P2;PMS_P1;PMS_P2;Temp;Humidity;BMP_temperature;BMP_pressure;BME280_temperature;BME280_humidity;BME280_pressure;Samples;Min_cycle;Max_cycle;Signal;HPM_P1;HPM_P2
2021/05/28 00:01:59;;;;;;;10.72;7.83;;;;;;;18.63;88.73;100444.48;1730205;80;21501;-49
2021/05/28 00:04:26;;;;;;;7.28;6.55;;;;;;;18.63;88.60;100438.59;1740188;81;21748;-47
2021/05/28 00:06:53;;;;;;;7.72;7.03;;;;;;;18.63;88.50;100443.98;1741229;80;21065;-48
2021/05/28 00:09:20;;;;;;;8.55;6.58;;;;;;;18.60;88.39;100438.88;1739224;80;20991;-47
2021/05/28 00:11:48;;;;;;;7.58;6.87;;;;;;;18.60;88.27;100442.42;1744652;81;21027;-47
2021/05/28 00:14:15;;;;;;;7.33;6.62;;;;;;;18.62;88.17;100450.36;1734081;81;21504;-45
2021/05/28 00:16:41;;;;;;;7.65;6.95;;;;;;;18.63;88.08;100441.28;1738315;80;20967;-45
2021/05/28 00:19:09;;;;;;;11.65;6.53;;;;;;;18.63;88.02;100449.39;1739555;80;20985;-44
2021/05/28 00:21:35;;;;;;;7.75;7.05;;;;;;;18.62;87.97;100441.41;1738604;81;21062;-44
2021/05/28 00:24:03;;;;;;;6.55;5.85;;;;;;;18.62;87.97;100435.52;1735280;81;20994;-46
2021/05/28 00:26:29;;;;;;;7.60;6.80;;;;;;;18.58;88.02;100430.91;1737875;80;21014;-44
2021/05/28 00:28:57;;;;;;;7.97;6.92;;;;;;;18.56;88.19;100432.05;1737119;80;21556;-46
2021/05/28 00:31:24;;;;;;;7.10;6.50;;;;;;;18.55;88.29;100433.90;1736603;80;21012;-44
2021/05/28 00:33:51;;;;;;;7.70;6.72;;;;;;;18.55;88.42;100426.30;1736427;80;21005;-39
2021/05/28 00:36:18;;;;;;;7.30;6.60;;;;;;;18.56;88.45;100428.00;1737009;81;21050;-43
2021/05/28 00:38:45;;;;;;;8.08;7.28;;;;;;;18.55;88.50;100433.05;1734646;80;21022;-44
2021/05/28 00:41:12;;;;;;;6.97;6.25;;;;;;;18.55;88.53;100433.05;1738325;81;21081;-42
2021/05/28 00:43:39;;;;;;;8.23;7.42;;;;;;;18.54;88.56;100437.58;1704610;82;21076;-45
2021/05/28 00:46:05;;;;;;;7.12;6.45;;;;;;;18.56;88.54;100432.05;1738706;81;20994;-46
2021/05/28 00:48:32;;;;;;;7.42;6.72;;;;;;;18.55;88.61;100424.45;1737929;80;21556;-43
2021/05/28 00:50:58;;;;;;;7.40;6.33;;;;;;;18.55;88.69;100422.25;1704092;82;21029;-46
2021/05/28 00:53:25;;;;;;;7.65;6.95;;;;;;;18.54;88.67;100423.23;1737288;80;21079;-45
2021/05/28 00:55:52;;;;;;;7.60;6.80;;;;;;;18.54;88.68;100424.58;1735650;80;21001;-47
2021/05/28 00:58:19;;;;;;;8.38;7.55;;;;;;;18.52;88.66;100423.39;1740901;80;20995;-46
2021/05/28 01:00:48;;;;;;;7.20;6.50;;;;;;;18.51;88.69;100424.88;1736478;80;21025;-45
2021/05/28 01:03:16;;;;;;;8.33;6.07;;;;;;;18.51;88.73;100428.92;1739746;80;21581;-44
2021/05/28 01:05:43;;;;;;;7.37;6.67;;;;;;;18.51;88.78;100425.72;1733359;80;20982;-44
2021/05/28 01:08:11;;;;;;;8.23;7.42;;;;;;;18.51;88.82;100421.67;1737726;80;21009;-45
2021/05/28 01:10:39;;;;;;;8.75;6.60;;;;;;;18.51;88.87;100423.02;1706315;82;21636;-47
2021/05/28 01:13:09;;;;;;;6.87;6.22;;;;;;;18.51;88.86;100427.06;1741453;80;21042;-44
2021/05/28 01:15:38;;;;;;;6.67;6.08;;;;;;;18.52;88.85;100426.09;1742092;80;21018;-43
2021/05/28 01:18:08;;;;;;;8.05;7.37;;;;;;;18.51;88.86;100424.37;1702707;82;21001;-46
2021/05/28 01:20:36;;;;;;;6.97;6.37;;;;;;;18.50;88.84;100419.13;1737242;80;21002;-43
2021/05/28 01:23:03;;;;;;;7.10;6.40;;;;;;;18.49;88.87;100422.80;1735635;80;20970;-40
2021/05/28 01:25:31;;;;;;;6.65;5.83;;;;;;;18.48;88.88;100415.20;1737019;80;20991;-42
2021/05/28 01:27:57;;;;;;;7.20;6.60;;;;;;;18.46;88.87;100419.89;1739382;80;21504;-41
2021/05/28 01:30:26;;;;;;;8.10;7.47;;;;;;;18.45;88.89;100422.25;1737544;80;20986;-42
2021/05/28 01:32:52;;;;;;;8.83;8.03;;;;;;;18.44;89.00;100420.53;1735676;80;20998;-39
2021/05/28 01:35:18;;;;;;;8.40;7.70;;;;;;;18.44;89.12;100425.08;1739190;80;21017;-43
2021/05/28 01:37:45;;;;;;;7.25;6.55;;;;;;;18.44;89.23;100418.33;1736182;80;22258;-42
2021/05/28 01:40:14;;;;;;;7.62;6.83;;;;;;;18.43;89.27;100424.23;1736550;81;20986;-43
2021/05/28 01:42:40;;;;;;;7.80;7.10;;;;;;;18.44;89.27;100422.38;1738978;80;20990;-44
2021/05/28 01:45:08;;;;;;;8.95;7.58;;;;;;;18.43;89.27;100425.58;1736031;80;21041;-41
2021/05/28 01:47:34;;;;;;;7.22;6.53;;;;;;;18.41;89.33;100424.02;1702637;83;21042;-42
2021/05/28 01:50:01;;;;;;;7.80;7.10;;;;;;;18.42;89.42;100425.71;1738130;80;21482;-44
2021/05/28 01:52:28;;;;;;;11.73;7.72;;;;;;;18.40;89.48;100420.47;1735939;80;20963;-43
2021/05/28 01:54:55;;;;;;;8.13;7.42;;;;;;;18.40;89.53;100423.17;1703976;82;21021;-43
2021/05/28 01:57:22;;;;;;;7.70;7.00;;;;;;;18.39;89.57;100424.14;1734813;80;20979;-43
2021/05/28 01:59:48;;;;;;;7.65;6.95;;;;;;;18.38;89.56;100421.95;1704483;82;21049;-43
2021/05/28 02:02:15;;;;;;;7.15;6.55;;;;;;;18.40;89.62;100423.67;1734279;80;20995;-45
2021/05/28 02:04:42;;;;;;;8.18;7.37;;;;;;;18.39;89.65;100424.14;1736509;80;21026;-46
2021/05/28 02:07:10;;;;;;;10.08;8.80;;;;;;;18.36;89.64;100432.53;1738528;80;21026;-45
2021/05/28 02:09:37;;;;;;;8.75;7.83;;;;;;;18.35;89.72;100434.39;1737966;80;21002;-44
2021/05/28 02:12:06;;;;;;;8.93;8.13;;;;;;;18.35;89.87;100429.49;1705027;82;21076;-44
2021/05/28 02:14:34;;;;;;;8.85;8.00;;;;;;;18.37;89.99;100434.26;1736793;81;20967;-40
2021/05/28 02:17:00;;;;;;;8.88;8.03;;;;;;;18.36;90.13;100426.63;1703007;82;21045;-45
2021/05/28 02:19:27;;;;;;;8.30;7.60;;;;;;;18.36;90.18;100420.39;1736692;81;21047;-40
2021/05/28 02:21:54;;;;;;;7.87;7.08;;;;;;;18.38;90.30;100421.11;1735351;80;21021;-43
2021/05/28 02:24:22;;;;;;;8.18;7.37;;;;;;;18.38;90.29;100416.55;1737190;80;21006;-44
2021/05/28 02:26:50;;;;;;;7.25;6.37;;;;;;;18.39;90.29;100421.45;1736401;80;21014;-44
2021/05/28 02:29:17;;;;;;;8.53;7.70;;;;;;;18.39;90.24;100418.75;1738807;80;21002;-42
2021/05/28 02:31:43;;;;;;;8.58;7.67;;;;;;;18.38;90.20;100419.25;1736924;80;20995;-41
2021/05/28 02:34:10;;;;;;;7.80;6.90;;;;;;;18.38;90.16;100417.91;1736693;80;21010;-46
2021/05/28 02:36:36;;;;;;;7.97;7.20;;;;;;;18.36;90.15;100413.14;1739811;80;20995;-43
2021/05/28 02:39:05;;;;;;;8.13;7.42;;;;;;;18.35;90.09;100407.39;1733347;80;21030;-42
2021/05/28 02:41:33;;;;;;;8.70;7.87;;;;;;;18.35;90.08;100402.50;1734637;80;21010;-39
2021/05/28 02:44:01;;;;;;;8.85;7.97;;;;;;;18.35;90.11;100401.16;1731586;80;21565;-41
2021/05/28 02:46:29;;;;;;;9.23;8.33;;;;;;;18.34;90.09;100403.00;1735158;80;21557;-40
2021/05/28 02:48:57;;;;;;;8.83;8.03;;;;;;;18.34;90.10;100395.38;1736174;80;20986;-40
2021/05/28 02:51:24;;;;;;;7.92;7.15;;;;;;;18.34;90.18;100396.27;1728965;80;21537;-46
2021/05/28 02:53:50;;;;;;;8.73;7.92;;;;;;;18.35;90.25;100393.05;1733706;80;20966;-42
2021/05/28 02:56:17;;;;;;;8.68;7.85;;;;;;;18.35;90.26;100391.20;1735579;81;21030;-51
2021/05/28 02:58:44;;;;;;;9.08;8.18;;;;;;;18.35;90.28;100389.86;1733235;80;21392;-43
2021/05/28 03:01:10;;;;;;;9.28;8.40;;;;;;;18.34;90.30;100386.81;1728517;80;20975;-45
2021/05/28 03:03:37;;;;;;;10.35;8.90;;;;;;;18.36;90.34;100390.20;1701245;82;21041;-42
2021/05/28 03:06:04;;;;;;;9.70;8.83;;;;;;;18.36;90.37;100388.84;1693524;83;21021;-42
2021/05/28 03:08:30;;;;;;;11.73;8.48;;;;;;;18.37;90.36;100389.73;1691915;83;21584;-40
2021/05/28 03:10:57;;;;;;;8.48;7.78;;;;;;;18.37;90.43;100387.88;1694061;83;20994;-42
2021/05/28 03:13:24;;;;;;;10.45;9.18;;;;;;;18.35;90.55;100387.16;1692443;83;21038;-44
2021/05/28 03:15:52;;;;;;;11.20;9.93;;;;;;;18.34;90.64;100377.36;1692862;83;21009;-40
2021/05/28 03:18:23;;;;;;;14.10;10.00;;;;;;;18.32;90.72;100378.47;1702063;83;21370;-42
2021/05/28 03:23:36;;;;;;;12.30;11.15;;;;;;;18.31;91.18;100383.02;1586883;88;21139;-38
2021/05/28 03:26:03;;;;;;;11.88;10.80;;;;;;;18.31;91.47;100390.27;1587633;88;21400;-40
2021/05/28 03:28:30;;;;;;;11.83;10.63;;;;;;;18.29;91.75;100381.46;1585967;88;21603;-40
2021/05/28 03:30:58;;;;;;;11.48;10.38;;;;;;;18.30;91.92;100385.38;1604642;87;21043;-43
2021/05/28 03:33:24;;;;;;;11.88;10.68;;;;;;;18.32;92.16;100390.14;1606484;87;21078;-43
2021/05/28 03:35:51;;;;;;;13.22;11.85;;;;;;;18.34;92.31;100396.27;1605218;87;21059;-43
2021/05/28 03:38:17;;;;;;;12.25;11.03;;;;;;;18.34;92.50;100394.03;1606049;87;21877;-43
2021/05/28 03:40:44;;;;;;;11.38;10.28;;;;;;;18.32;92.68;100388.80;1635834;85;21544;-44
2021/05/28 03:43:11;;;;;;;11.08;9.78;;;;;;;18.33;92.93;100392.34;1620489;86;21013;-41
2021/05/28 03:45:37;;;;;;;10.98;9.98;;;;;;;18.34;93.16;100398.95;1618586;86;21045;-43
2021/05/28 03:48:05;;;;;;;10.63;9.58;;;;;;;18.35;93.23;100395.75;1609569;86;21052;-42
2021/05/28 03:50:31;;;;;;;10.63;9.63;;;;;;;18.33;93.28;100390.48;1618554;86;21928;-42
2021/05/28 03:52:58;;;;;;;11.57;10.50;;;;;;;18.31;93.47;100395.17;1617890;86;21066;-43
2021/05/28 03:55:25;;;;;;;13.00;11.65;;;;;;;18.27;93.74;100400.98;1673153;83;20999;-43
2021/05/28 03:57:52;;;;;;;13.48;12.28;;;;;;;18.24;94.12;100398.07;1688429;82;21103;-53
2021/05/28 04:00:19;;;;;;;15.80;13.83;;;;;;;18.24;94.30;100403.97;1681866;83;21043;-45
2021/05/28 04:02:46;;;;;;;13.65;12.15;;;;;;;18.22;94.62;100406.83;1683871;83;21027;-43
2021/05/28 04:05:15;;;;;;;15.38;13.78;;;;;;;18.21;94.90;100419.10;1685828;83;21075;-41
2021/05/28 04:07:41;;;;;;;14.58;13.08;;;;;;;18.21;95.19;100411.85;1687345;83;21292;-47
2021/05/28 04:10:09;;;;;;;15.28;13.55;;;;;;;18.25;95.49;100420.03;1686506;83;21032;-42
2021/05/28 04:12:36;;;;;;;13.72;12.40;;;;;;;18.29;95.68;100416.04;1689229;83;21091;-43
2021/05/28 04:15:04;;;;;;;12.15;11.08;;;;;;;18.32;95.77;100409.51;1685663;83;21109;-43
2021/05/28 04:17:30;;;;;;;12.43;11.33;;;;;;;18.33;95.66;100401.28;1689068;82;21485;-44
2021/05/28 04:19:58;;;;;;;12.03;10.93;;;;;;;18.37;95.57;100397.31;1687733;83;21015;-41
2021/05/28 04:22:25;;;;;;;12.37;11.08;;;;;;;18.37;95.46;100410.81;1691796;83;21017;-39
2021/05/28 04:24:52;;;;;;;12.65;11.35;;;;;;;18.38;95.59;100414.36;1689611;83;21059;-42
2021/05/28 04:27:19;;;;;;;13.48;12.18;;;;;;;18.42;95.66;100409.05;1700577;83;20992;-42
2021/05/28 04:29:45;;;;;;;10.88;9.90;;;;;;;18.43;95.59;100413.44;1697966;83;20990;-44
2021/05/28 04:32:12;;;;;;;11.95;10.85;;;;;;;18.41;95.51;100410.52;1690789;83;21027;-43
2021/05/28 04:34:38;;;;;;;12.30;11.22;;;;;;;18.40;95.64;100421.83;1689732;82;20992;-51
2021/05/28 04:37:05;;;;;;;12.43;11.20;;;;;;;18.44;95.82;100425.08;1697678;82;20997;-46
2021/05/28 04:39:32;;;;;;;12.20;11.08;;;;;;;18.46;95.96;100421.75;1687711;82;21498;-48
2021/05/28 04:41:58;;;;;;;11.97;10.88;;;;;;;18.48;96.03;100427.86;1722106;80;21397;-45
2021/05/28 04:44:26;;;;;;;12.35;11.10;;;;;;;18.50;96.08;100420.48;1736632;80;21576;-45
2021/05/28 04:46:53;;;;;;;13.50;12.25;;;;;;;18.53;96.14;100423.73;1737672;82;21063;-42
2021/05/28 04:49:19;;;;;;;16.82;12.25;;;;;;;18.55;96.12;100426.30;1741072;80;21025;-45
2021/05/28 04:51:46;;;;;;;12.70;11.57;;;;;;;18.57;96.23;100418.89;1741741;80;20986;-44
2021/05/28 04:54:13;;;;;;;14.05;12.65;;;;;;;18.60;96.19;100418.62;1732082;80;21814;-47
2021/05/28 04:56:44;;;;;;;14.10;12.80;;;;;;;18.64;95.96;100425.42;1738779;80;20955;-44
2021/05/28 04:59:13;;;;;;;13.32;12.13;;;;;;;18.65;95.61;100423.09;1735203;80;21100;-44
2021/05/28 05:01:40;;;;;;;13.62;12.33;;;;;;;18.65;95.48;100424.45;1736241;80;21026;-45
2021/05/28 05:04:06;;;;;;;12.95;11.60;;;;;;;18.64;95.24;100417.83;1738799;80;21328;-43
2021/05/28 05:06:33;;;;;;;12.65;11.35;;;;;;;18.64;95.30;100417.83;1730763;80;21006;-45
2021/05/28 05:09:00;;;;;;;10.78;9.78;;;;;;;18.65;95.47;100417.70;1732804;81;21009;-46
2021/05/28 05:11:28;;;;;;;11.35;10.25;;;;;;;18.65;95.38;100418.17;1737200;80;21076;-43
2021/05/28 05:13:54;;;;;;;11.45;10.30;;;;;;;18.64;95.18;100417.33;1732584;80;21010;-45
2021/05/28 05:16:21;;;;;;;11.03;10.03;;;;;;;18.65;95.18;100418.17;1733596;80;21338;-45
2021/05/28 05:18:48;;;;;;;10.28;9.28;;;;;;;18.66;95.19;100419.39;1735957;80;21003;-45
2021/05/28 05:21:16;;;;;;;9.73;8.75;;;;;;;18.69;95.12;100416.91;1734008;80;21859;-43
2021/05/28 05:23:42;;;;;;;9.63;8.73;;;;;;;18.71;94.95;100418.46;1703900;82;21033;-46
2021/05/28 05:26:09;;;;;;;9.65;8.65;;;;;;;18.75;94.83;100423.97;1697003;84;21022;-41
2021/05/28 05:28:36;;;;;;;10.10;9.20;;;;;;;18.79;94.79;100421.32;1737260;81;21025;-43
2021/05/28 05:31:03;;;;;;;10.25;9.25;;;;;;;18.81;94.80;100419.84;1734153;80;21010;-43
2021/05/28 05:33:30;;;;;;;9.18;8.35;;;;;;;18.81;94.71;100409.03;1735685;80;21456;-44
2021/05/28 05:35:57;;;;;;;9.35;8.45;;;;;;;18.81;94.30;100409.03;1703533;82;20998;-43
2021/05/28 05:38:23;;;;;;;8.53;7.67;;;;;;;18.78;93.69;100406.13;1697536;83;21039;-45
2021/05/28 05:40:50;;;;;;;10.58;9.58;;;;;;;18.78;93.45;100404.77;1699020;83;20978;-58
2021/05/28 05:43:16;;;;;;;11.70;9.70;;;;;;;18.80;93.69;100405.48;1739065;80;21395;-44
2021/05/28 05:45:43;;;;;;;10.25;9.20;;;;;;;18.85;93.93;100409.11;1680545;81;21021;-45
2021/05/28 05:48:10;;;;;;;11.95;10.85;;;;;;;18.88;94.24;100404.77;1705950;82;21572;-42
2021/05/28 05:50:37;;;;;;;11.88;10.68;;;;;;;18.91;94.37;100404.97;1710114;82;20982;-45
2021/05/28 05:53:03;;;;;;;13.05;11.73;;;;;;;18.95;94.29;100406.36;1694568;83;21006;-43
2021/05/28 05:55:30;;;;;;;12.15;11.05;;;;;;;18.96;94.21;100406.23;1704540;83;21014;-43
2021/05/28 05:57:56;;;;;;;11.65;10.45;;;;;;;19.00;94.33;100404.11;1705656;82;21037;-44
2021/05/28 06:00:25;;;;;;;11.80;10.75;;;;;;;19.02;94.52;100405.66;1737536;81;21810;-46
2021/05/28 06:02:52;;;;;;;11.65;10.45;;;;;;;19.05;94.47;100402.29;1744538;80;21577;-45
2021/05/28 06:05:18;;;;;;;9.73;8.80;;;;;;;19.08;94.39;100404.22;1730148;80;21024;-43
2021/05/28 06:07:46;;;;;;;9.03;7.10;;;;;;;19.09;94.20;100403.20;1734773;80;21029;-46
2021/05/28 06:10:13;;;;;;;8.18;7.42;;;;;;;19.07;93.81;100397.09;1735274;80;21680;-43
2021/05/28 06:12:40;;;;;;;9.93;7.75;;;;;;;19.08;93.54;100400.67;1734298;80;21089;-46
2021/05/28 06:15:08;;;;;;;9.30;8.43;;;;;;;19.11;93.38;100399.02;1735792;80;21002;-45
2021/05/28 06:17:35;;;;;;;10.75;9.65;;;;;;;19.09;92.61;100394.26;1737214;80;21052;-49
2021/05/28 06:20:03;;;;;;;10.72;9.63;;;;;;;19.09;92.26;100399.66;1702179;82;21005;-46
2021/05/28 06:22:31;;;;;;;11.10;9.93;;;;;;;19.13;92.16;100396.52;1679625;83;21542;-47
2021/05/28 06:24:58;;;;;;;21.57;16.02;;;;;;;19.19;92.36;100399.97;1700729;83;21583;-46
2021/05/28 06:27:25;;;;;;;12.25;11.15;;;;;;;19.25;92.70;100399.87;1703650;82;20993;-45
2021/05/28 06:29:51;;;;;;;11.03;9.93;;;;;;;19.32;92.69;100401.50;1704505;83;20996;-47
2021/05/28 06:32:18;;;;;;;12.80;11.50;;;;;;;19.36;92.24;100397.00;1701610;83;21054;-46
2021/05/28 06:34:44;;;;;;;15.43;10.85;;;;;;;19.42;92.06;100395.55;1695270;83;21066;-45
2021/05/28 06:37:11;;;;;;;13.30;11.25;;;;;;;19.47;91.62;100387.84;1703028;82;20991;-54
2021/05/28 06:39:38;;;;;;;11.73;10.63;;;;;;;19.53;91.29;100385.03;1704151;83;21026;-52
2021/05/28 06:42:07;;;;;;;11.10;10.10;;;;;;;19.56;90.81;100382.91;1705020;84;21034;-47
2021/05/28 06:44:35;;;;;;;11.48;10.38;;;;;;;19.60;90.41;100386.98;1703686;83;20969;-48
2021/05/28 06:47:02;;;;;;;10.60;9.53;;;;;;;19.63;90.66;100387.19;1733054;80;21006;-47
2021/05/28 06:49:30;;;;;;;11.35;10.05;;;;;;;19.68;90.12;100390.36;1736791;80;21405;-45
2021/05/28 06:51:57;;;;;;;11.20;10.10;;;;;;;19.71;89.16;100383.28;1733182;81;21029;-45
2021/05/28 06:58:21;;;;;;;11.00;8.33;;;;;;;19.77;88.59;100383.17;1638059;86;21014;-51
2021/05/28 07:00:48;;;;;;;9.35;8.45;;;;;;;19.80;86.91;100375.59;1637360;86;21073;-46
2021/05/28 07:03:15;;;;;;;11.00;9.90;;;;;;;19.86;86.54;100372.80;1635244;86;21032;-44
2021/05/28 07:05:42;;;;;;;11.55;10.38;;;;;;;19.91;86.36;100372.32;1633029;86;21013;-43
2021/05/28 07:08:10;;;;;;;11.88;10.78;;;;;;;19.92;85.85;100376.75;1631041;85;21034;-45
2021/05/28 07:10:38;;;;;;;12.82;11.53;;;;;;;19.89;85.71;100369.28;1632450;86;21538;-42
2021/05/28 07:13:05;;;;;;;11.78;10.48;;;;;;;19.90;85.52;100371.48;1632426;86;21141;-41
2021/05/28 07:15:32;;;;;;;11.68;10.48;;;;;;;19.93;85.20;100368.97;1634402;86;21017;-45
2021/05/28 07:18:00;;;;;;;12.35;11.12;;;;;;;19.94;85.52;100370.18;1627741;85;21036;-43
2021/05/28 07:20:29;;;;;;;12.88;11.73;;;;;;;19.99;86.09;100371.08;1632676;86;21000;-43
2021/05/28 07:22:56;;;;;;;12.45;11.35;;;;;;;20.05;86.23;100368.59;1635657;86;21109;-46
2021/05/28 07:25:23;;;;;;;10.28;9.38;;;;;;;20.14;86.00;100374.11;1637946;85;21027;-43
2021/05/28 07:27:49;;;;;;;13.45;10.85;;;;;;;20.20;86.17;100364.84;1633524;86;21108;-41
2021/05/28 07:30:19;;;;;;;13.03;11.75;;;;;;;20.29;86.18;100369.85;1633658;86;21018;-42
2021/05/28 07:32:46;;;;;;;12.68;10.93;;;;;;;20.38;85.60;100369.41;1631849;86;21037;-43
2021/05/28 07:35:13;;;;;;;12.10;10.93;;;;;;;20.43;84.94;100365.73;1646675;83;21533;-43
2021/05/28 07:37:40;;;;;;;12.88;11.57;;;;;;;20.48;84.72;100361.53;1686406;83;21105;-44
2021/05/28 07:40:08;;;;;;;11.68;10.58;;;;;;;20.56;84.69;100365.36;1691753;84;21001;-42
2021/05/28 07:42:35;;;;;;;12.50;11.15;;;;;;;20.62;84.27;100361.52;1693558;83;21054;-42
2021/05/28 07:45:02;;;;;;;11.75;10.70;;;;;;;20.65;83.17;100361.20;1683453;83;21796;-42
2021/05/28 07:47:29;;;;;;;11.10;10.10;;;;;;;20.65;82.07;100363.91;1672410;83;22047;-43
2021/05/28 07:49:56;;;;;;;11.65;10.45;;;;;;;20.63;81.55;100355.59;1688436;83;21085;-48
2021/05/28 07:52:22;;;;;;;9.90;8.95;;;;;;;20.62;81.35;100361.52;1686193;83;21037;-45
2021/05/28 07:54:51;;;;;;;8.58;7.78;;;;;;;20.62;80.57;100354.75;1693341;83;21002;-40
2021/05/28 07:57:18;;;;;;;9.65;8.70;;;;;;;20.60;81.08;100351.34;1687601;83;21041;-40
2021/05/28 07:59:45;;;;;;;10.38;9.30;;;;;;;20.61;81.09;100351.68;1681179;83;21045;-46
2021/05/28 08:02:12;;;;;;;13.35;10.75;;;;;;;20.65;81.32;100353.59;1685216;83;21898;-43
2021/05/28 08:04:39;;;;;;;11.57;10.48;;;;;;;20.69;81.48;100345.50;1685246;83;21018;-44
2021/05/28 08:07:06;;;;;;;10.30;9.35;;;;;;;20.74;80.99;100343.17;1686859;83;21033;-45
2021/05/28 08:09:33;;;;;;;9.10;7.80;;;;;;;20.79;81.07;100340.83;1693386;83;21053;-48
2021/05/28 08:12:03;;;;;;;9.23;8.33;;;;;;;20.83;81.16;100337.28;1698551;83;21010;-44
2021/05/28 08:14:32;;;;;;;10.50;9.35;;;;;;;20.86;80.88;100333.73;1732738;80;21038;-44
2021/05/28 08:16:59;;;;;;;10.32;9.33;;;;;;;20.91;79.33;100334.11;1737643;80;21060;-44
2021/05/28 08:19:26;;;;;;;9.93;8.90;;;;;;;20.95;78.63;100332.79;1737927;80;21580;-42
2021/05/28 08:21:53;;;;;;;10.15;9.15;;;;;;;20.98;76.13;100330.27;1688820;82;21457;-42
2021/05/28 08:24:21;;;;;;;8.73;7.92;;;;;;;20.94;75.30;100322.97;1732656;80;21005;-43
2021/05/28 08:26:48;;;;;;;8.65;7.85;;;;;;;20.99;76.38;100325.20;1744544;80;21014;-40
2021/05/28 08:29:15;;;;;;;9.30;8.38;;;;;;;21.07;77.44;100318.98;1736928;80;21012;-44
2021/05/28 08:31:44;;;;;;;6.95;6.10;;;;;;;21.14;76.37;100317.30;1729087;81;21081;-45
2021/05/28 08:34:10;;;;;;;6.28;5.35;;;;;;;21.19;74.81;100314.95;1737048;80;21497;-45
2021/05/28 08:36:36;;;;;;;6.58;6.00;;;;;;;21.27;74.05;100315.00;1713096;82;21008;-45
2021/05/28 08:39:05;;;;;;;7.55;6.95;;;;;;;21.35;73.51;100310.12;1728000;80;21011;-46
2021/05/28 08:41:33;;;;;;;11.08;7.72;;;;;;;21.44;74.73;100298.81;1733095;80;21074;-46
2021/05/28 08:44:01;;;;;;;8.58;7.62;;;;;;;21.51;74.67;100298.50;1745910;80;21005;-46
2021/05/28 08:46:29;;;;;;;8.70;7.85;;;;;;;21.56;74.93;100298.86;1736669;81;21066;-46
2021/05/28 08:48:56;;;;;;;9.95;6.97;;;;;;;21.63;74.81;100303.97;1739607;80;20981;-44
2021/05/28 08:51:23;;;;;;;7.67;6.33;;;;;;;21.69;75.03;100299.73;1734073;81;21002;-47
2021/05/28 08:53:50;;;;;;;9.23;7.05;;;;;;;21.75;72.94;100304.52;1733304;81;20998;-43
2021/05/28 08:56:17;;;;;;;8.80;6.92;;;;;;;21.80;73.10;100303.50;1744093;80;21053;-42
2021/05/28 08:58:44;;;;;;;6.58;5.95;;;;;;;21.82;71.45;100289.23;1750899;80;21040;-42
2021/05/28 09:01:11;;;;;;;7.17;6.47;;;;;;;21.86;70.43;100285.70;1748627;80;21008;-45
2021/05/28 09:03:39;;;;;;;7.50;6.87;;;;;;;21.86;69.61;100293.84;1753134;80;21724;-43
2021/05/28 09:06:17;;;;;;;8.15;7.42;;;;;;;21.83;68.90;100288.23;1752960;80;21049;-44
2021/05/28 09:08:44;;;;;;;7.72;7.00;;;;;;;21.80;69.17;100288.58;1748280;80;21018;-46
2021/05/28 09:11:17;;;;;;;9.40;8.45;;;;;;;21.79;71.06;100287.70;1754441;80;21844;-46
2021/05/28 09:13:51;;;;;;;8.93;8.13;;;;;;;21.79;70.84;100288.22;1755308;80;21088;-42
2021/05/28 09:16:27;;;;;;;9.33;8.50;;;;;;;21.79;71.32;100288.22;1757298;81;20993;-46
2021/05/28 09:18:57;;;;;;;7.87;7.17;;;;;;;21.80;71.75;100293.49;1758690;80;21639;-46
2021/05/28 09:21:32;;;;;;;7.65;6.95;;;;;;;21.81;70.88;100286.20;1760346;80;21021;-44
2021/05/28 09:24:13;;;;;;;8.50;7.55;;;;;;;21.78;71.08;100286.02;1757976;80;21041;-44
2021/05/28 09:26:53;;;;;;;7.75;7.05;;;;;;;21.81;71.50;100283.48;1710541;82;21431;-44
2021/05/28 09:29:21;;;;;;;8.63;7.92;;;;;;;21.85;71.20;100277.20;1676406;83;21075;-43
2021/05/28 09:31:48;;;;;;;8.78;7.97;;;;;;;21.88;72.33;100276.89;1704454;83;21017;-44
2021/05/28 09:34:14;;;;;;;8.95;7.70;;;;;;;21.91;71.66;100276.55;1704402;82;21029;-46
2021/05/28 09:36:41;;;;;;;7.00;6.50;;;;;;;21.95;71.50;100272.48;1682542;83;21069;-45
2021/05/28 09:39:16;;;;;;;7.87;7.03;;;;;;;22.00;71.68;100276.91;1675626;83;21564;-45
2021/05/28 09:41:53;;;;;;;6.90;6.40;;;;;;;22.05;71.44;100281.31;1710534;82;21033;-43
2021/05/28 09:44:23;;;;;;;7.12;6.42;;;;;;;22.11;71.61;100279.78;1709974;83;21008;-47
2021/05/28 09:47:17;;;;;;;6.42;5.72;;;;;;;22.16;70.80;100271.98;1714386;82;21423;-50
2021/05/28 09:49:50;;;;;;;6.35;5.70;;;;;;;22.23;70.17;100270.31;1710473;82;21577;-45
2021/05/28 09:52:21;;;;;;;9.18;8.33;;;;;;;22.34;70.04;100266.39;1683618;83;21013;-44
2021/05/28 09:55:06;;;;;;;7.35;6.65;;;;;;;22.39;69.06;100253.99;1711581;83;21069;-45
2021/05/28 09:57:40;;;;;;;7.37;6.65;;;;;;;22.42;67.87;100256.36;1668820;84;21052;-44
2021/05/28 10:00:33;;;;;;;6.45;5.85;;;;;;;22.42;67.29;100250.92;1687548;83;20996;-43
2021/05/28 10:03:22;;;;;;;5.75;5.20;;;;;;;22.45;68.21;100253.32;1659681;84;21065;-47
2021/05/28 10:05:51;;;;;;;7.85;5.22;;;;;;;22.52;67.69;100249.38;1690500;83;21053;-48
2021/05/28 10:08:20;;;;;;;5.87;5.37;;;;;;;22.59;66.78;100246.32;1691469;83;21009;-45
2021/05/28 10:10:49;;;;;;;8.35;6.25;;;;;;;22.63;67.23;100240.05;1696734;83;21005;-45
2021/05/28 10:13:19;;;;;;;6.62;6.05;;;;;;;22.67;66.47;100240.02;1691059;83;20998;-47
2021/05/28 10:15:48;;;;;;;7.28;6.35;;;;;;;22.71;68.09;100240.53;1695434;83;21026;-45
2021/05/28 10:18:15;;;;;;;7.75;7.15;;;;;;;22.77;68.70;100237.95;1683739;83;20983;-48
2021/05/28 10:20:51;;;;;;;7.05;5.95;;;;;;;22.81;67.45;100232.51;1744201;80;21038;-46
2021/05/28 10:23:18;;;;;;;6.37;5.22;;;;;;;22.84;66.44;100223.16;1729681;80;21131;-51
2021/05/28 10:25:46;;;;;;;6.58;6.00;;;;;;;22.85;67.49;100225.68;1732593;80;21588;-45
2021/05/28 10:28:18;;;;;;;6.15;5.55;;;;;;;22.91;67.58;100225.52;1710553;82;20998;-46
2021/05/28 10:30:46;;;;;;;6.60;6.05;;;;;;;22.95;67.31;100217.84;1687909;83;21105;-45
2021/05/28 10:33:26;;;;;;;6.28;5.55;;;;;;;22.98;67.58;100220.23;1692918;83;21590;-45
2021/05/28 10:35:56;;;;;;;5.25;4.75;;;;;;;23.02;67.99;100226.50;1692535;83;21083;-46
2021/05/28 10:38:46;;;;;;;4.80;4.40;;;;;;;23.05;67.43;100216.63;1695711;83;21011;-44
2021/05/28 10:41:19;;;;;;;4.70;4.30;;;;;;;23.09;66.17;100211.18;1694046;83;21038;-43
2021/05/28 10:43:54;;;;;;;5.03;4.53;;;;;;;23.09;63.93;100204.38;1695055;83;21043;-46
2021/05/28 10:46:21;;;;;;;4.53;4.12;;;;;;;23.06;62.45;100204.75;1692185;83;21015;-46
2021/05/28 10:49:06;;;;;;;6.00;5.40;;;;;;;23.02;63.12;100202.55;1697255;83;21482;-41
2021/05/28 10:51:38;;;;;;;5.05;4.60;;;;;;;23.06;65.25;100209.34;1741341;81;21014;-44
2021/05/28 10:54:19;;;;;;;6.80;4.40;;;;;;;23.10;64.52;100190.27;1743087;80;21006;-44
2021/05/28 10:56:46;;;;;;;5.37;4.03;;;;;;;23.14;63.84;100185.34;1741601;80;21045;-46
2021/05/28 10:59:15;;;;;;;4.72;4.30;;;;;;;23.17;64.72;100183.10;1737880;80;20982;-47
2021/05/28 11:02:00;;;;;;;5.55;5.03;;;;;;;23.19;63.47;100181.05;1730096;80;21086;-50
2021/05/28 11:04:51;;;;;;;6.15;5.53;;;;;;;23.22;62.66;100182.05;1731820;80;21070;-43
2021/05/28 11:07:18;;;;;;;6.47;5.65;;;;;;;23.24;63.05;100180.00;1737779;80;20966;-45
2021/05/28 11:09:50;;;;;;;5.47;4.97;;;;;;;23.24;62.27;100167.77;1734698;81;21873;-44
2021/05/28 11:12:29;;;;;;;6.15;5.55;;;;;;;23.21;61.54;100165.91;1738642;81;21080;-45
2021/05/28 11:15:13;;;;;;;5.35;4.85;;;;;;;23.14;61.50;100162.23;1736120;80;21022;-50
2021/05/28 11:17:58;;;;;;;8.13;5.92;;;;;;;23.06;61.25;100159.05;1731952;81;21018;-49
2021/05/28 11:20:38;;;;;;;6.05;5.45;;;;;;;23.01;61.87;100155.50;1732412;80;20981;-52
2021/05/28 11:23:08;;;;;;;6.92;6.22;;;;;;;23.01;62.54;100152.78;1737288;82;21034;-50
2021/05/28 11:25:48;;;;;;;6.90;6.10;;;;;;;23.04;63.06;100142.91;1731878;81;21018;-48
2021/05/28 11:28:16;;;;;;;10.45;5.62;;;;;;;23.05;63.07;100141.86;1737052;80;21061;-50
2021/05/28 11:30:54;;;;;;;6.83;6.08;;;;;;;23.06;62.75;100145.45;1738809;80;21021;-46
2021/05/28 11:33:47;;;;;;;8.03;6.97;;;;;;;23.06;62.01;100131.34;1733153;80;21541;-50